Louis Jolliet — VA7153 — position and weather

sailwx.info

Track history (hours):
 
Tides and Currents Weather Stations Pressure Air Temp Water Temp Dewpoint Dewpoint Depression Visibility Wind Speed Wind Dir Waves Ship Positions

Louis Jolliet

Last reported at 2016-Jul-31 09:28 UTC. Time now 2016-Dec-03 13:46 UTC.
Position N 46°16' W 072°39'.
Warning: this ship's position is months out of date.

Length 50 m.

Type: Passenger vessel. MMSI: 316013356.

Date/timePositionNaut miles runAvg speedWind from/ knotsBaromVisibWave heightAir tempDewpointWater temp
2016-Jul-31 09:28N 46°16' W 072°39'1112.2
2016-Jul-31 08:33N 46°11' W 072°54'1212.1
2016-Jul-31 07:33N 46°03' W 073°07'1212.3
2016-Jul-31 06:33N 45°52' W 073°15'1313.0
2016-Jul-31 05:33N 45°42' W 073°27'1312.7
2016-Jul-31 04:33N 45°30' W 073°33'0 0.0
2016-Jul-31 03:33N 45°30' W 073°33'2 2.1
2016-Jul-31 02:33N 45°32' W 073°32'1 1.1
2016-Jul-31 01:33N 45°33' W 073°31'5 5.1
2016-Jul-31 00:33N 45°38' W 073°29'8 1.4
2016-Jul-30 18:33N 45°30' W 073°33'7 7.4
2016-Jul-30 17:33N 45°37' W 073°30'9 8.5
2016-Jul-30 16:33N 45°45' W 073°24'9 9.0
2016-Jul-30 15:33N 45°52' W 073°16'9 8.9
2016-Jul-30 14:33N 45°60' W 073°11'9 8.6
2016-Jul-30 13:33N 46°05' W 073°01'9 8.8
2016-Jul-30 12:33N 46°12' W 072°53'10 0.2
2016-Jul-28 09:06N 46°16' W 072°39'611.7
2016-Jul-28 08:33N 46°13' W 072°48'1212.1
2016-Jul-28 07:33N 46°05' W 073°01'1211.6
2016-Jul-28 06:33N 45°57' W 073°13'1212.4
2016-Jul-28 05:33N 45°47' W 073°22'1313.0
2016-Jul-28 04:34N 45°35' W 073°30'5 4.3
2016-Jul-28 03:23N 45°30' W 073°33'2 2.4
2016-Jul-28 02:34N 45°32' W 073°32'1 0.9
2016-Jul-28 01:34N 45°33' W 073°31'5 4.7
2016-Jul-28 00:34N 45°37' W 073°30'5 5.1
2016-Jul-27 23:34N 45°32' W 073°32'2 0.4
2016-Jul-27 17:19N 45°30' W 073°33'5 6.7
2016-Jul-27 16:34N 45°35' W 073°30'8 8.2
2016-Jul-27 15:34N 45°43' W 073°26'9 8.6
2016-Jul-27 14:34N 45°49' W 073°18'9 8.6
2016-Jul-27 13:34N 45°57' W 073°13'8 8.3
2016-Jul-27 12:34N 46°04' W 073°06'8 8.4
2016-Jul-27 11:34N 46°09' W 072°57'  
2016-Jul-24 09:33N 46°19' W 072°33'1212.2
2016-Jul-24 08:34N 46°13' W 072°49'1212.2
2016-Jul-24 07:33N 46°04' W 073°02'1211.7
2016-Jul-24 06:33N 45°56' W 073°13'1312.7
2016-Jul-24 05:33N 45°45' W 073°23'1312.6
2016-Jul-24 04:33N 45°34' W 073°31'4 3.4
2016-Jul-24 03:23N 45°30' W 073°33'2 2.6
2016-Jul-24 02:33N 45°32' W 073°32'1 1.1
2016-Jul-24 01:33N 45°33' W 073°31'5 5.2
2016-Jul-24 00:33N 45°38' W 073°29'6 6.1
2016-Jul-23 23:33N 45°32' W 073°32'2 0.6
2016-Jul-23 19:33N 45°30' W 073°33'8 7.5
2016-Jul-23 18:33N 45°37' W 073°30'9 8.6
2016-Jul-23 17:33N 45°45' W 073°24'9 9.0
2016-Jul-23 16:33N 45°52' W 073°16'9 8.8
2016-Jul-23 15:33N 46°00' W 073°11'9 8.6
2016-Jul-23 14:33N 46°05' W 073°01'10 8.7
2016-Jul-23 13:25N 46°12' W 072°51'8 9.4
2016-Jul-23 12:33N 46°16' W 072°40'  
Track history (hours):
 
Tides and Currents Weather Stations Pressure Air Temp Water Temp Dewpoint Dewpoint Depression Visibility Wind Speed Wind Dir Waves Ship Positions

Louis Jolliet

Last reported at 2016-Jul-31 09:28 UTC. Time now 2016-Dec-03 13:46 UTC.
Position N 46°16' W 072°39'.
Warning: this ship's position is months out of date.

Length 50 m.

Type: Passenger vessel. MMSI: 316013356.

Date/timePositionNaut miles runAvg speedWind from/ knotsBaromVisibWave heightAir tempDewpointWater temp
2016-Jul-31 09:28N 46°16' W 072°39'1112.2
2016-Jul-31 08:33N 46°11' W 072°54'1212.1
2016-Jul-31 07:33N 46°03' W 073°07'1212.3
2016-Jul-31 06:33N 45°52' W 073°15'1313.0
2016-Jul-31 05:33N 45°42' W 073°27'1312.7
2016-Jul-31 04:33N 45°30' W 073°33'0 0.0
2016-Jul-31 03:33N 45°30' W 073°33'2 2.1
2016-Jul-31 02:33N 45°32' W 073°32'1 1.1
2016-Jul-31 01:33N 45°33' W 073°31'5 5.1
2016-Jul-31 00:33N 45°38' W 073°29'8 1.4
2016-Jul-30 18:33N 45°30' W 073°33'7 7.4
2016-Jul-30 17:33N 45°37' W 073°30'9 8.5
2016-Jul-30 16:33N 45°45' W 073°24'9 9.0
2016-Jul-30 15:33N 45°52' W 073°16'9 8.9
2016-Jul-30 14:33N 45°60' W 073°11'9 8.6
2016-Jul-30 13:33N 46°05' W 073°01'9 8.8
2016-Jul-30 12:33N 46°12' W 072°53'10 0.2
2016-Jul-28 09:06N 46°16' W 072°39'611.7
2016-Jul-28 08:33N 46°13' W 072°48'1212.1
2016-Jul-28 07:33N 46°05' W 073°01'1211.6
2016-Jul-28 06:33N 45°57' W 073°13'1212.4
2016-Jul-28 05:33N 45°47' W 073°22'1313.0
2016-Jul-28 04:34N 45°35' W 073°30'5 4.3
2016-Jul-28 03:23N 45°30' W 073°33'2 2.4
2016-Jul-28 02:34N 45°32' W 073°32'1 0.9
2016-Jul-28 01:34N 45°33' W 073°31'5 4.7
2016-Jul-28 00:34N 45°37' W 073°30'5 5.1
2016-Jul-27 23:34N 45°32' W 073°32'2 0.4
2016-Jul-27 17:19N 45°30' W 073°33'5 6.7
2016-Jul-27 16:34N 45°35' W 073°30'8 8.2
2016-Jul-27 15:34N 45°43' W 073°26'9 8.6
2016-Jul-27 14:34N 45°49' W 073°18'9 8.6
2016-Jul-27 13:34N 45°57' W 073°13'8 8.3
2016-Jul-27 12:34N 46°04' W 073°06'8 8.4
2016-Jul-27 11:34N 46°09' W 072°57'  
2016-Jul-24 09:33N 46°19' W 072°33'1212.2
2016-Jul-24 08:34N 46°13' W 072°49'1212.2
2016-Jul-24 07:33N 46°04' W 073°02'1211.7
2016-Jul-24 06:33N 45°56' W 073°13'1312.7
2016-Jul-24 05:33N 45°45' W 073°23'1312.6
2016-Jul-24 04:33N 45°34' W 073°31'4 3.4
2016-Jul-24 03:23N 45°30' W 073°33'2 2.6
2016-Jul-24 02:33N 45°32' W 073°32'1 1.1
2016-Jul-24 01:33N 45°33' W 073°31'5 5.2
2016-Jul-24 00:33N 45°38' W 073°29'6 6.1
2016-Jul-23 23:33N 45°32' W 073°32'2 0.6
2016-Jul-23 19:33N 45°30' W 073°33'8 7.5
2016-Jul-23 18:33N 45°37' W 073°30'9 8.6
2016-Jul-23 17:33N 45°45' W 073°24'9 9.0
2016-Jul-23 16:33N 45°52' W 073°16'9 8.8
2016-Jul-23 15:33N 46°00' W 073°11'9 8.6
2016-Jul-23 14:33N 46°05' W 073°01'10 8.7
2016-Jul-23 13:25N 46°12' W 072°51'8 9.4
2016-Jul-23 12:33N 46°16' W 072°40'  

Dump ship's entire track history